Avila Beach, California
Current Conditions -  °F | °C
As of 5:56 AM on Monday 20 Oct 2014 (Local Time) from KSBP Reporting Station
Overcast Overcast  
Wind Chill: 62°   Ceiling: 1500
Heat Index: 62°   Visibility: 10mi
Dew Point: 56°   Wind: 0mph
Humidity: 80%   Direction: NA
Pressure: 29.93"   Gusts: NA
Location:  35.18°N, 120.73°W
Report Text: KSBP 201256Z 00000KT 10SM OVC015 17/13 A2993 RMK AO2 SLP132 T01670133
Loading
Personal Weather Stations






























Interactive Weather Map
Tropical Storm Tracking
New forecast layout! Learn more

10-Day Weather Forecast

Advertisements
Track Severe Weather on mobile